This is the latest recevied weather packets stored in our database for station/object OE-11213. If no packets are shown the sender has not sent any weather packets the latest 10 day(s).
| Time | Temp. | Humidity | Pressure | Rain* | Wind** | Luminosity | Snow |
|---|---|---|---|---|---|---|---|
| 1788010530 | 23.89° C | 46% | 1014.8 hPa | 0 mm | - | 225 W/m² | - |
| 1788009929 | 23.89° C | 46% | 1014.8 hPa | 0 mm | - | 435 W/m² | - |
| 1788009103 | 24.44° C | 46% | 1014.6 hPa | 0 mm | - | 566 W/m² | - |
| 1788008730 | 23.89° C | 46% | 1014.7 hPa | 0 mm | - | 457 W/m² | - |
| 1788008130 | 24.44° C | 44% | 1014.8 hPa | 0 mm | - | 711 W/m² | - |
| 1788007303 | 25° C | 42% | 1015 hPa | 0 mm | - | 798 W/m² | - |
| 1788006930 | 24.44° C | 42% | 1015 hPa | 0 mm | - | 711 W/m² | - |
| 1788006330 | 24.44° C | 41% | 1015.1 hPa | 0 mm | - | 754 W/m² | - |
| 1788005502 | 24.44° C | 39% | 1015.3 hPa | 0 mm | - | 798 W/m² | - |
| 1788005130 | 23.89° C | 42% | 1015.4 hPa | 0 mm | - | 718 W/m² | - |
| 1788004530 | 23.89° C | 42% | 1015.7 hPa | 0 mm | - | 682 W/m² | - |
| 1788003703 | 23.33° C | 46% | 1015.8 hPa | 0 mm | - | 682 W/m² | - |
| 1788003330 | 22.78° C | 46% | 1016 hPa | 0 mm | - | 500 W/m² | - |
| 1788002730 | 22.22° C | 52% | 1016.1 hPa | 0 mm | - | 428 W/m² | - |
| 1788001903 | 22.22° C | 51% | 1016.2 hPa | 0 mm | - | 334 W/m² | - |
| 1788001530 | 22.22° C | 50% | 1016.2 hPa | 0 mm | - | 377 W/m² | - |
| 1788000930 | 22.22° C | 51% | 1016.2 hPa | 0 mm | - | 464 W/m² | - |
| 1788000103 | 22.78° C | 48% | 1016.2 hPa | 0 mm | - | 790 W/m² | - |
| 1787999730 | 23.89° C | 47% | 1016 hPa | 0 mm | - | 805 W/m² | - |
| 1787999130 | 23.33° C | 49% | 1015.8 hPa | 0 mm | - | 798 W/m² | - |
| 1787998303 | 23.33° C | 50% | 1015.9 hPa | 0 mm | - | 718 W/m² | - |
| 1787997929 | 23.89° C | 46% | 1015.7 hPa | 0 mm | - | 740 W/m² | - |
| 1787997330 | 23.89° C | 46% | 1015.9 hPa | 0 mm | - | 551 W/m² | - |
| 1787996503 | 23.33° C | 47% | 1015.8 hPa | 0 mm | - | 587 W/m² | - |
| 1787996130 | 22.78° C | 46% | 1015.9 hPa | 0 mm | - | 348 W/m² | - |
* Rain latest hour (hover to see other rain measurements)
** Current wind speed in m/s (hover to see current wind gust speed)